메인 페이지
METAR-TAF:

METAR-TAF

공항 :

Churchill, 매니토바, 캐나다

위도: 58-44N, 경도: 094-04W, 고도: 28m

현재 날씨관측

예보는 37분 전, 10:00시(UTC)에 발표되었습니다.
4kt
온도 -18°C
습도 71%
기압 1006 hPa
시정: 24.1km
고도 15000ft 상공 구름 보통
고도 19000ft 상공 구름 많음

METAR: CYYQ 151000Z 27004KT 15SM SCT150 BKN190 M18/M22 A2972 RMK AC3CI4 SLP068

시각: 04:37 (10:37 UTC)

예보

예보는 4 시간 59분 전, 05:38시(UTC)에 발표되었습니다.
예보 대상 시간: 15일 06시부터 16일 06시까지 (UTC)
서북서12kt
시정: 10km
고도 1500ft 상공 구름 조금
15일 0800시부터 (UTC)
10kt
시정: 10km
고도 18000ft 상공 구름 많음
15일 1200시부터 (UTC)
5kt
시정: 10km
고도 9000ft 상공 구름 많음
15일 1400시부터 (UTC)
남남서5kt
시정: 6.4km
고도 3000ft 상공 흐림
약한눈
일시적
15일 14시부터 15일 18시까지 (UTC)
시정: 1.6km
고도 800ft 상공
약한눈
15일 1800시부터 (UTC)
동북동12kt, 순간 최대 풍속 22kt
시정: 10km
고도 800ft 상공 흐림
일시적
15일 18시부터 16일 06시까지 (UTC)
시정: 3.2km
고도 400ft 상공 흐림
약한눈, 박무

TAF: CYYQ 150538Z 1506/1606 29012KT P6SM FEW015 FM150800 26010KT P6SM BKN180 FM151200 26005KT P6SM BKN090 FM151400 20005KT 4SM -SN OVC030 TEMPO 1514/1518 1SM -SN VV008 FM151800 07012G22KT P6SM OVC008 TEMPO 1518/1606 2SM -SN BR OVC004 RMK NXT FCST BY 151200Z

4,000개 이상의 공항 관측 자료 및 예보 (METAR 및 TAF 보고).

지도상에서 검색 가능한 기상관측소가 노란 점과 빨간 점으로 표시되어 있습니다.

기상관측소 명을 보려면 표시 위로 마우스를 이동하세요.

날씨 관측과 예보를 보려면 클릭하세요.

지도 변경 : 확대하려면 엑스 표시가 있는 녹색 버튼, 축소하려면 빼기 표시가 있는 녹색 버튼, 다음 페이지의 지도를 보려면 녹색 화살표를 클릭하세요.


METAR-TAF: